Leonard, Minnesota
Current Conditions -  °F | °C
As of 11:53 AM on Friday 21 Nov 2014 (Local Time) from KBJI Reporting Station
Clear Clear  
Wind Chill: 15°   Ceiling: Unl
Heat Index: 26°   Visibility: 10mi
Dew Point: 16°   Wind: 12mph
Humidity: 67%   Direction: 190°S
Pressure: 29.8"   Gusts: 21mph
Location:  47.65°N, 95.27°W
Report Text: KBJI 211753Z AUTO 19010G18KT 10SM CLR M04/M09 A2980 RMK AO2 T10361089
Loading
Personal Weather Stations






























Interactive Weather Map New forecast layout! Learn more

10-Day Weather Forecast

Advertisements
Track Severe Weather on mobile